N68JL KFFT-KLUK
Flight info
| Callsign | N68JL |
|---|---|
| Flight time | 0h 31m |
| Altitude | 11000 |
| Route | JAKIE |
| Aircraft | BE20/L-VGD/C |
Departure
| Time | 2026-04-18 18:17 |
|---|---|
| Airport | Capital City Airport (KFFT) |
Arrival
| Time | 2026-04-18 18:48 |
|---|---|
| Airport | Cincinnati Municipal Airport Lunken Field (KLUK) |
| Time | Latitude | Longitude | Altitude | Speed | Heading |
|---|---|---|---|---|---|
| 2026-04-18 17:49 | 38.18096 | -84.90301 | 807 ft | 0 kts | 244° |
| 2026-04-18 17:53 | 38.18096 | -84.90302 | 807 ft | 0 kts | 244° |
| 2026-04-18 17:56 | 38.18095 | -84.90302 | 807 ft | 0 kts | 244° |
| 2026-04-18 17:56 | 38.18095 | -84.90303 | 807 ft | 0 kts | 244° |
| 2026-04-18 17:59 | 38.18095 | -84.90304 | 807 ft | 0 kts | 244° |
| 2026-04-18 18:01 | 38.18095 | -84.90305 | 807 ft | 0 kts | 244° |
| 2026-04-18 18:03 | 38.18094 | -84.90305 | 807 ft | 0 kts | 244° |
| 2026-04-18 18:04 | 38.18094 | -84.90306 | 807 ft | 0 kts | 244° |
| 2026-04-18 18:07 | 38.18094 | -84.90307 | 807 ft | 0 kts | 244° |
| 2026-04-18 18:09 | 38.18094 | -84.90308 | 807 ft | 0 kts | 244° |
| 2026-04-18 18:10 | 38.18093 | -84.90308 | 807 ft | 0 kts | 244° |
| 2026-04-18 18:10 | 38.18095 | -84.90318 | 807 ft | 2 kts | 325° |
| 2026-04-18 18:10 | 38.18130 | -84.90345 | 807 ft | 14 kts | 335° |
| 2026-04-18 18:11 | 38.18198 | -84.90368 | 807 ft | 8 kts | 48° |
| 2026-04-18 18:11 | 38.18232 | -84.90290 | 807 ft | 18 kts | 64° |
| 2026-04-18 18:11 | 38.18292 | -84.90133 | 807 ft | 19 kts | 63° |
| 2026-04-18 18:11 | 38.18352 | -84.89978 | 807 ft | 22 kts | 64° |
| 2026-04-18 18:12 | 38.18424 | -84.89791 | 807 ft | 23 kts | 64° |
| 2026-04-18 18:12 | 38.18476 | -84.89671 | 807 ft | 8 kts | 21° |
| 2026-04-18 18:12 | 38.18483 | -84.89669 | 807 ft | 0 kts | 3° |
| 2026-04-18 18:15 | 38.18485 | -84.89669 | 807 ft | 1 kts | 349° |
| 2026-04-18 18:15 | 38.18521 | -84.89690 | 807 ft | 11 kts | 334° |
| 2026-04-18 18:15 | 38.18535 | -84.89723 | 807 ft | 0 kts | 243° |
| 2026-04-18 18:16 | 38.18533 | -84.89728 | 807 ft | 3 kts | 244° |
| 2026-04-18 18:17 | 38.18436 | -84.89977 | 807 ft | 74 kts | 244° |
| 2026-04-18 18:17 | 38.18110 | -84.90818 | 969 ft | 124 kts | 241° |
| 2026-04-18 18:17 | 38.17687 | -84.91850 | 1485 ft | 146 kts | 240° |
| 2026-04-18 18:17 | 38.17176 | -84.93070 | 1908 ft | 165 kts | 241° |
| 2026-04-18 18:18 | 38.16773 | -84.94449 | 2396 ft | 167 kts | 253° |
| 2026-04-18 18:18 | 38.16779 | -84.95903 | 2938 ft | 167 kts | 284° |
| 2026-04-18 18:18 | 38.17478 | -84.97077 | 3445 ft | 172 kts | 320° |
| 2026-04-18 18:18 | 38.18625 | -84.97530 | 3948 ft | 181 kts | 351° |
| 2026-04-18 18:19 | 38.19887 | -84.97228 | 4440 ft | 189 kts | 21° |
| 2026-04-18 18:19 | 38.20995 | -84.96267 | 4935 ft | 196 kts | 37° |
| 2026-04-18 18:19 | 38.21905 | -84.94983 | 5421 ft | 200 kts | 48° |
| 2026-04-18 18:19 | 38.22685 | -84.93502 | 5924 ft | 202 kts | 61° |
| 2026-04-18 18:20 | 38.23283 | -84.91879 | 6419 ft | 203 kts | 70° |
| 2026-04-18 18:20 | 38.23745 | -84.90197 | 6913 ft | 203 kts | 73° |
| 2026-04-18 18:20 | 38.24174 | -84.88467 | 7423 ft | 204 kts | 75° |
| 2026-04-18 18:20 | 38.24590 | -84.86743 | 7907 ft | 207 kts | 75° |
| 2026-04-18 18:21 | 38.25031 | -84.84980 | 8408 ft | 210 kts | 75° |
| 2026-04-18 18:21 | 38.25485 | -84.83205 | 8899 ft | 211 kts | 74° |
| 2026-04-18 18:21 | 38.25939 | -84.81448 | 9379 ft | 211 kts | 74° |
| 2026-04-18 18:21 | 38.26406 | -84.79658 | 9866 ft | 212 kts | 74° |
| 2026-04-18 18:22 | 38.26874 | -84.77874 | 10350 ft | 213 kts | 74° |
| 2026-04-18 18:22 | 38.27344 | -84.76079 | 10810 ft | 216 kts | 72° |
| 2026-04-18 18:22 | 38.27831 | -84.74211 | 10971 ft | 232 kts | 71° |
| 2026-04-18 18:22 | 38.28359 | -84.72202 | 11003 ft | 245 kts | 71° |
| 2026-04-18 18:23 | 38.28913 | -84.70094 | 11003 ft | 255 kts | 71° |
| 2026-04-18 18:23 | 38.29484 | -84.67919 | 11003 ft | 262 kts | 71° |
| 2026-04-18 18:23 | 38.30058 | -84.65732 | 11000 ft | 263 kts | 71° |
| 2026-04-18 18:23 | 38.30641 | -84.63507 | 10996 ft | 263 kts | 71° |
| 2026-04-18 18:24 | 38.31217 | -84.61306 | 10999 ft | 267 kts | 71° |
| 2026-04-18 18:24 | 38.31814 | -84.59036 | 10998 ft | 271 kts | 71° |
| 2026-04-18 18:24 | 38.32423 | -84.56741 | 11009 ft | 274 kts | 71° |
| 2026-04-18 18:24 | 38.33034 | -84.54435 | 11008 ft | 276 kts | 71° |
| 2026-04-18 18:25 | 38.33648 | -84.52107 | 11010 ft | 277 kts | 71° |
| 2026-04-18 18:25 | 38.34254 | -84.49797 | 11006 ft | 278 kts | 71° |
| 2026-04-18 18:25 | 38.34866 | -84.47456 | 11009 ft | 278 kts | 71° |
| 2026-04-18 18:25 | 38.35479 | -84.45104 | 11015 ft | 279 kts | 71° |
| 2026-04-18 18:26 | 38.36090 | -84.42750 | 11020 ft | 279 kts | 71° |
| 2026-04-18 18:26 | 38.36692 | -84.40421 | 11021 ft | 279 kts | 71° |
| 2026-04-18 18:26 | 38.37304 | -84.38066 | 11021 ft | 280 kts | 71° |
| 2026-04-18 18:26 | 38.37915 | -84.35700 | 11026 ft | 280 kts | 71° |
| 2026-04-18 18:27 | 38.38520 | -84.33355 | 11099 ft | 277 kts | 71° |
| 2026-04-18 18:27 | 38.39133 | -84.31002 | 11118 ft | 282 kts | 71° |
| 2026-04-18 18:27 | 38.39754 | -84.28624 | 11125 ft | 285 kts | 71° |
| 2026-04-18 18:27 | 38.40383 | -84.26196 | 11125 ft | 287 kts | 71° |
| 2026-04-18 18:28 | 38.41012 | -84.23766 | 11125 ft | 288 kts | 71° |
| 2026-04-18 18:28 | 38.41639 | -84.21362 | 11124 ft | 289 kts | 71° |
| 2026-04-18 18:28 | 38.42455 | -84.19024 | 11122 ft | 287 kts | 53° |
| 2026-04-18 18:28 | 38.43855 | -84.17285 | 11124 ft | 277 kts | 26° |
| 2026-04-18 18:29 | 38.45607 | -84.16464 | 11128 ft | 262 kts | 359° |
| 2026-04-18 18:29 | 38.47350 | -84.16654 | 11125 ft | 244 kts | 333° |
| 2026-04-18 18:29 | 38.48742 | -84.17694 | 11131 ft | 230 kts | 311° |
| 2026-04-18 18:29 | 38.49859 | -84.19127 | 11126 ft | 227 kts | 306° |
| 2026-04-18 18:30 | 38.51187 | -84.20306 | 11117 ft | 243 kts | 329° |
| 2026-04-18 18:30 | 38.52911 | -84.20637 | 11117 ft | 260 kts | 355° |
| 2026-04-18 18:30 | 38.54687 | -84.20077 | 11124 ft | 271 kts | 13° |
| 2026-04-18 18:30 | 38.56436 | -84.19114 | 11107 ft | 275 kts | 18° |
| 2026-04-18 18:31 | 38.58161 | -84.18022 | 11100 ft | 276 kts | 20° |
| 2026-04-18 18:31 | 38.59872 | -84.16885 | 11098 ft | 277 kts | 21° |
| 2026-04-18 18:31 | 38.61553 | -84.15754 | 11092 ft | 277 kts | 21° |
| 2026-04-18 18:31 | 38.63268 | -84.14593 | 11051 ft | 278 kts | 21° |
| 2026-04-18 18:32 | 38.64982 | -84.13439 | 11035 ft | 278 kts | 21° |
| 2026-04-18 18:32 | 38.66698 | -84.12283 | 11028 ft | 278 kts | 21° |
| 2026-04-18 18:32 | 38.68397 | -84.11144 | 11030 ft | 279 kts | 21° |
| 2026-04-18 18:32 | 38.70128 | -84.09984 | 11028 ft | 280 kts | 21° |
| 2026-04-18 18:33 | 38.71863 | -84.08816 | 11027 ft | 281 kts | 21° |
| 2026-04-18 18:33 | 38.73597 | -84.07646 | 11024 ft | 282 kts | 21° |
| 2026-04-18 18:33 | 38.75334 | -84.06473 | 11024 ft | 282 kts | 21° |
| 2026-04-18 18:33 | 38.77079 | -84.05293 | 11022 ft | 283 kts | 21° |
| 2026-04-18 18:34 | 38.78801 | -84.04123 | 11019 ft | 283 kts | 21° |
| 2026-04-18 18:34 | 38.80551 | -84.02934 | 11016 ft | 283 kts | 21° |
| 2026-04-18 18:34 | 38.82290 | -84.01756 | 11016 ft | 283 kts | 21° |
| 2026-04-18 18:34 | 38.84030 | -84.00579 | 11014 ft | 283 kts | 21° |
| 2026-04-18 18:35 | 38.85778 | -83.99396 | 11011 ft | 283 kts | 21° |
| 2026-04-18 18:35 | 38.87500 | -83.98234 | 11010 ft | 283 kts | 21° |
| 2026-04-18 18:35 | 38.89256 | -83.97051 | 11009 ft | 283 kts | 21° |
| 2026-04-18 18:35 | 38.91009 | -83.95896 | 11008 ft | 282 kts | 18° |
| 2026-04-18 18:36 | 38.92820 | -83.95046 | 11007 ft | 278 kts | 10° |
| 2026-04-18 18:36 | 38.94688 | -83.94792 | 11009 ft | 264 kts | 348° |
| 2026-04-18 18:36 | 38.96476 | -83.95172 | 11006 ft | 259 kts | 338° |
| 2026-04-18 18:36 | 38.98211 | -83.95769 | 11002 ft | 257 kts | 335° |
| 2026-04-18 18:37 | 38.99912 | -83.96432 | 10994 ft | 251 kts | 334° |
| 2026-04-18 18:37 | 39.01559 | -83.97093 | 10709 ft | 244 kts | 333° |
| 2026-04-18 18:37 | 39.03169 | -83.97757 | 10204 ft | 248 kts | 333° |
| 2026-04-18 18:37 | 39.04843 | -83.98460 | 9581 ft | 256 kts | 333° |
| 2026-04-18 18:38 | 39.06539 | -83.99185 | 9091 ft | 255 kts | 333° |
| 2026-04-18 18:38 | 39.08200 | -83.99919 | 8821 ft | 247 kts | 333° |
| 2026-04-18 18:38 | 39.09772 | -84.00578 | 8720 ft | 235 kts | 333° |
| 2026-04-18 18:38 | 39.11302 | -84.01204 | 8595 ft | 227 kts | 334° |
| 2026-04-18 18:39 | 39.12804 | -84.01811 | 8417 ft | 224 kts | 333° |
| 2026-04-18 18:39 | 39.14284 | -84.02411 | 8241 ft | 221 kts | 333° |
| 2026-04-18 18:39 | 39.15750 | -84.02998 | 8065 ft | 220 kts | 333° |
| 2026-04-18 18:39 | 39.17169 | -84.03620 | 7884 ft | 213 kts | 325° |
| 2026-04-18 18:40 | 39.18233 | -84.04797 | 7673 ft | 193 kts | 295° |
| 2026-04-18 18:40 | 39.18736 | -84.06339 | 7395 ft | 185 kts | 280° |
| 2026-04-18 18:40 | 39.19014 | -84.07981 | 7023 ft | 188 kts | 276° |
| 2026-04-18 18:40 | 39.19227 | -84.09620 | 6728 ft | 187 kts | 274° |
| 2026-04-18 18:41 | 39.19419 | -84.11284 | 6427 ft | 186 kts | 274° |
| 2026-04-18 18:41 | 39.19601 | -84.12940 | 6139 ft | 185 kts | 274° |
| 2026-04-18 18:41 | 39.19548 | -84.14565 | 5829 ft | 181 kts | 252° |
| 2026-04-18 18:41 | 39.19034 | -84.16026 | 5536 ft | 180 kts | 241° |
| 2026-04-18 18:42 | 39.18390 | -84.17410 | 5261 ft | 179 kts | 239° |
| 2026-04-18 18:42 | 39.17736 | -84.18750 | 4994 ft | 177 kts | 240° |
| 2026-04-18 18:42 | 39.17204 | -84.20189 | 4703 ft | 177 kts | 249° |
| 2026-04-18 18:42 | 39.16840 | -84.21691 | 4409 ft | 178 kts | 253° |
| 2026-04-18 18:43 | 39.16249 | -84.24825 | 3873 ft | 179 kts | 257° |
| 2026-04-18 18:43 | 39.16015 | -84.26386 | 3646 ft | 178 kts | 260° |
| 2026-04-18 18:43 | 39.16007 | -84.28002 | 3346 ft | 182 kts | 276° |
| 2026-04-18 18:44 | 39.16341 | -84.29534 | 3222 ft | 170 kts | 286° |
| 2026-04-18 18:44 | 39.16772 | -84.30754 | 3179 ft | 138 kts | 291° |
| 2026-04-18 18:44 | 39.17246 | -84.31795 | 2890 ft | 132 kts | 296° |
| 2026-04-18 18:44 | 39.17527 | -84.32830 | 2702 ft | 117 kts | 273° |
| 2026-04-18 18:45 | 39.17507 | -84.33841 | 2472 ft | 112 kts | 259° |
| 2026-04-18 18:45 | 39.17254 | -84.34787 | 2204 ft | 112 kts | 240° |
| 2026-04-18 18:45 | 39.16736 | -84.35582 | 1970 ft | 119 kts | 223° |
| 2026-04-18 18:45 | 39.16081 | -84.36209 | 1829 ft | 120 kts | 212° |
| 2026-04-18 18:46 | 39.15385 | -84.36816 | 1685 ft | 121 kts | 211° |
| 2026-04-18 18:46 | 39.14666 | -84.37354 | 1617 ft | 109 kts | 207° |
| 2026-04-18 18:46 | 39.14018 | -84.37802 | 1466 ft | 103 kts | 204° |
| 2026-04-18 18:46 | 39.13378 | -84.38211 | 1293 ft | 105 kts | 204° |
| 2026-04-18 18:47 | 39.12730 | -84.38668 | 1127 ft | 107 kts | 209° |
| 2026-04-18 18:47 | 39.12113 | -84.39218 | 964 ft | 108 kts | 215° |
| 2026-04-18 18:47 | 39.11550 | -84.39887 | 778 ft | 110 kts | 225° |
| 2026-04-18 18:47 | 39.11129 | -84.40694 | 615 ft | 109 kts | 237° |
| 2026-04-18 18:48 | 39.10778 | -84.41535 | 491 ft | 100 kts | 239° |
| 2026-04-18 18:48 | 39.10496 | -84.42215 | 487 ft | 61 kts | 240° |
| 2026-04-18 18:48 | 39.10379 | -84.42501 | 487 ft | 29 kts | 241° |
| 2026-04-18 18:48 | 39.10301 | -84.42687 | 487 ft | 3 kts | 250° |
| 2026-04-18 18:49 | 39.10306 | -84.42717 | 487 ft | 12 kts | 310° |
| 2026-04-18 18:49 | 39.10396 | -84.42781 | 487 ft | 9 kts | 298° |
| 2026-04-18 18:49 | 39.10387 | -84.42824 | 487 ft | 8 kts | 226° |
| 2026-04-18 18:50 | 39.10355 | -84.42840 | 487 ft | 0 kts | 197° |